Angwin, California
Current Conditions -  °F | °C
As of 7:53 AM on Friday 19 Dec 2014 (Local Time) from KSTS Reporting Station
Moderate Rain Moderate Rain  
Wind Chill: 54°   Ceiling: 5000
Heat Index: 54°   Visibility: 6mi
Dew Point: 53°   Wind: 7mph
Humidity: 97%   Direction: 90°E
Pressure: 30.1"   Gusts: NA
Location:  38.58°N, 122.45°W
Report Text: KSTS 191553Z 09006KT 6SM RA BR FEW007 BKN050 OVC070 12/12 A3010 RMK AO2 SLP185 P0033 T01220117
Loading
Personal Weather Stations






























Interactive Weather Map New forecast layout! Learn more

10-Day Weather Forecast

Advertisements
Track Severe Weather on mobile